Time;durP1;ratioP1;P1;durP2;ratioP2;P2;SDS_P1;SDS_P2;PMS_P1;PMS_P2;Temp;Humidity;BMP_temperature;BMP_pressure;BME280_temperature;BME280_humidity;BME280_pressure;Samples;Min_cycle;Max_cycle;Signal;HPM_P1;HPM_P2
2021/12/03 00:00:45;;;;;;;8.27;7.30;;;3.50;99.90;;;;;;5033253;28;20183;-53
2021/12/03 00:03:10;;;;;;;7.90;7.07;;;3.50;99.90;;;;;;5033359;28;20200;-55
2021/12/03 00:05:36;;;;;;;8.67;7.77;;;3.50;99.90;;;;;;5033012;28;20273;-54
2021/12/03 00:08:03;;;;;;;9.60;7.40;;;3.50;99.90;;;;;;5032972;28;20658;-55
2021/12/03 00:10:29;;;;;;;7.97;7.00;;;3.50;99.90;;;;;;5032307;28;20851;-52
2021/12/03 00:12:57;;;;;;;7.90;6.70;;;3.50;99.90;;;;;;5033511;28;20278;-54
2021/12/03 00:15:25;;;;;;;7.80;7.00;;;3.60;99.90;;;;;;5033065;28;20199;-55
2021/12/03 00:17:51;;;;;;;9.50;6.77;;;3.60;99.90;;;;;;5033570;28;20286;-55
2021/12/03 00:20:18;;;;;;;7.23;6.53;;;3.60;99.90;;;;;;5033154;28;20194;-53
2021/12/03 00:22:46;;;;;;;7.60;6.77;;;3.60;99.90;;;;;;5033365;28;20196;-55
2021/12/03 00:25:12;;;;;;;7.63;6.43;;;3.60;99.90;;;;;;5015171;28;20196;-52
2021/12/03 00:27:39;;;;;;;7.97;7.00;;;3.60;99.90;;;;;;5033853;28;20168;-55
2021/12/03 00:30:07;;;;;;;7.60;6.80;;;3.70;99.90;;;;;;5033657;28;20194;-54
2021/12/03 00:32:33;;;;;;;7.07;6.37;;;3.70;99.90;;;;;;5033901;28;20190;-53
2021/12/03 00:34:58;;;;;;;8.17;6.73;;;3.70;99.90;;;;;;5033204;28;20670;-53
2021/12/03 00:37:24;;;;;;;8.23;6.90;;;3.80;99.90;;;;;;5033751;28;20279;-55
2021/12/03 00:39:50;;;;;;;8.23;6.97;;;3.70;99.90;;;;;;5033426;28;20229;-57
2021/12/03 00:42:18;;;;;;;7.43;6.63;;;3.70;99.90;;;;;;5033729;28;20207;-53
2021/12/03 00:44:49;;;;;;;8.40;7.53;;;3.70;99.90;;;;;;5033067;28;20188;-56
2021/12/03 00:47:14;;;;;;;7.83;6.90;;;3.20;99.90;;;;;;5033386;28;20263;-56
2021/12/03 00:49:40;;;;;;;7.43;6.63;;;3.80;99.90;;;;;;5033499;28;20259;-56
2021/12/03 00:52:06;;;;;;;7.20;6.40;;;3.70;99.90;;;;;;5033405;28;20626;-52
2021/12/03 00:54:32;;;;;;;6.90;6.20;;;3.70;99.90;;;;;;5032964;28;20211;-55
2021/12/03 00:56:58;;;;;;;9.53;7.20;;;3.80;99.90;;;;;;5033012;28;20257;-50
2021/12/03 00:59:23;;;;;;;7.00;6.30;;;3.80;99.90;;;;;;5033194;28;20179;-52
2021/12/03 01:01:49;;;;;;;7.77;6.97;;;3.70;99.90;;;;;;5032737;28;20269;-55
2021/12/03 01:04:15;;;;;;;7.43;6.53;;;3.70;99.90;;;;;;5033206;28;20180;-55
2021/12/03 01:06:40;;;;;;;7.60;6.50;;;3.70;99.90;;;;;;5032628;28;20196;-55
2021/12/03 01:09:06;;;;;;;7.10;6.40;;;3.60;99.90;;;;;;5032965;28;20234;-53
2021/12/03 01:11:31;;;;;;;7.77;6.97;;;3.60;99.90;;;;;;5032928;28;20179;-54
2021/12/03 01:14:00;;;;;;;7.77;6.53;;;3.40;99.90;;;;;;5032896;28;20172;-55
2021/12/03 01:16:27;;;;;;;6.93;6.03;;;3.50;99.90;;;;;;5032491;28;20191;-56
2021/12/03 01:18:53;;;;;;;7.47;6.50;;;3.50;99.90;;;;;;5032882;28;20233;-53
2021/12/03 01:21:18;;;;;;;6.53;5.80;;;3.40;99.90;;;;;;5015180;28;20175;-55
2021/12/03 01:23:45;;;;;;;7.70;5.77;;;3.40;99.90;;;;;;5032695;28;20574;-55
2021/12/03 01:26:10;;;;;;;7.80;7.00;;;3.40;99.90;;;;;;5032401;28;20543;-55
2021/12/03 01:28:36;;;;;;;6.57;5.83;;;3.30;99.90;;;;;;5032440;28;20202;-53
2021/12/03 01:31:02;;;;;;;7.90;6.53;;;3.30;99.90;;;;;;5032599;28;20172;-55
2021/12/03 01:33:27;;;;;;;7.30;6.57;;;3.30;99.90;;;;;;5032501;28;20229;-57
2021/12/03 01:35:53;;;;;;;7.80;6.40;;;3.20;99.90;;;;;;5032244;28;20277;-55
2021/12/03 01:38:19;;;;;;;6.70;5.73;;;3.20;99.90;;;;;;5032342;28;20180;-54
2021/12/03 01:40:45;;;;;;;6.70;5.60;;;3.20;99.90;;;;;;5032484;28;20179;-55
2021/12/03 01:43:14;;;;;;;6.03;5.23;;;3.20;99.90;;;;;;5032112;28;20246;-54
2021/12/03 01:45:41;;;;;;;6.43;5.70;;;3.20;99.90;;;;;;5031899;28;20207;-55
2021/12/03 01:48:08;;;;;;;6.10;5.50;;;3.10;99.90;;;;;;5032268;28;20172;-57
2021/12/03 01:50:41;;;;;;;8.37;6.07;;;3.10;99.90;;;;;;5032238;28;20547;-55
2021/12/03 01:53:08;;;;;;;6.07;5.47;;;3.10;99.90;;;;;;5032305;28;20211;-46
2021/12/03 01:55:34;;;;;;;7.63;6.37;;;3.10;99.90;;;;;;5031782;28;20203;-54
2021/12/03 01:57:59;;;;;;;7.57;6.30;;;3.10;99.90;;;;;;5032078;28;20176;-52
2021/12/03 02:00:32;;;;;;;6.73;5.93;;;3.10;99.90;;;;;;5032151;28;20180;-55
2021/12/03 02:02:59;;;;;;;8.03;5.67;;;3.00;99.90;;;;;;5032059;28;20206;-54
2021/12/03 02:05:25;;;;;;;7.83;6.80;;;3.00;99.90;;;;;;5031574;28;20667;-56
2021/12/03 02:07:51;;;;;;;7.60;5.67;;;3.00;99.90;;;;;;5031864;28;20219;-54
2021/12/03 02:10:19;;;;;;;6.67;5.60;;;3.00;99.90;;;;;;5031811;28;20182;-52
2021/12/03 02:12:45;;;;;;;8.33;6.80;;;3.00;99.90;;;;;;5031499;28;20180;-55
2021/12/03 02:15:11;;;;;;;8.03;6.80;;;3.00;99.90;;;;;;5031216;28;20578;-56
2021/12/03 02:17:37;;;;;;;7.87;6.87;;;3.00;99.90;;;;;;5031900;28;20171;-55
2021/12/03 02:20:07;;;;;;;7.87;6.50;;;3.00;99.90;;;;;;5031587;28;20712;-55
2021/12/03 02:22:33;;;;;;;8.13;7.30;;;3.00;99.90;;;;;;5031804;28;20203;-53
2021/12/03 02:24:58;;;;;;;9.03;7.60;;;3.00;99.90;;;;;;5031334;28;20194;-55
2021/12/03 02:27:24;;;;;;;7.43;6.23;;;3.00;99.90;;;;;;5031680;28;20172;-55
2021/12/03 02:29:50;;;;;;;7.33;6.50;;;3.00;99.90;;;;;;5031712;28;20180;-55
2021/12/03 02:32:15;;;;;;;8.73;7.63;;;3.00;99.90;;;;;;5031562;28;20753;-54
2021/12/03 02:34:41;;;;;;;7.93;7.10;;;3.00;99.90;;;;;;5031319;28;20200;-52
2021/12/03 02:37:06;;;;;;;8.80;7.67;;;3.00;99.90;;;;;;5031564;28;20516;-55
2021/12/03 02:39:32;;;;;;;9.73;7.90;;;3.10;99.90;;;;;;5031649;28;20186;-55
2021/12/03 02:41:58;;;;;;;7.90;7.10;;;3.00;99.90;;;;;;5031323;28;20203;-56
2021/12/03 02:44:24;;;;;;;9.03;7.90;;;3.00;99.90;;;;;;5031493;28;20167;-55
2021/12/03 02:46:49;;;;;;;9.13;7.93;;;3.00;99.90;;;;;;5031137;28;20211;-52
2021/12/03 02:49:15;;;;;;;9.47;7.67;;;3.00;99.90;;;;;;5031439;28;20176;-57
2021/12/03 02:51:42;;;;;;;8.53;7.30;;;3.00;99.90;;;;;;5031421;28;20168;-55
2021/12/03 02:54:08;;;;;;;9.10;7.20;;;3.10;99.90;;;;;;5031664;28;20176;-55
2021/12/03 02:56:34;;;;;;;9.27;7.90;;;3.10;99.90;;;;;;5031037;28;20195;-55
2021/12/03 02:59:00;;;;;;;8.67;7.43;;;3.10;99.90;;;;;;5031324;28;20594;-54
2021/12/03 03:01:26;;;;;;;9.83;8.63;;;3.10;99.90;;;;;;5031429;28;20230;-55
2021/12/03 03:03:51;;;;;;;8.87;7.87;;;3.10;99.90;;;;;;5031201;28;20207;-55
2021/12/03 03:06:17;;;;;;;8.50;7.60;;;3.10;99.90;;;;;;5031039;28;20204;-52
2021/12/03 03:08:44;;;;;;;7.63;6.83;;;3.10;99.90;;;;;;5031325;28;20242;-53
2021/12/03 03:11:11;;;;;;;7.97;6.77;;;3.10;99.90;;;;;;5031186;28;20635;-56
2021/12/03 03:13:37;;;;;;;10.00;7.93;;;3.10;99.90;;;;;;5031222;28;20176;-55
2021/12/03 03:16:04;;;;;;;8.10;6.87;;;3.10;99.90;;;;;;5030920;28;20195;-55
2021/12/03 03:18:30;;;;;;;8.33;7.40;;;3.10;99.90;;;;;;5031074;28;20211;-53
2021/12/03 03:20:58;;;;;;;8.80;7.23;;;3.10;99.90;;;;;;5031325;28;20210;-52
2021/12/03 03:23:23;;;;;;;7.87;6.97;;;3.10;99.90;;;;;;5031125;28;20662;-54
2021/12/03 03:25:49;;;;;;;9.70;8.00;;;3.10;99.90;;;;;;5033575;28;20201;-55
2021/12/03 03:28:15;;;;;;;7.63;6.43;;;3.10;99.90;;;;;;5034845;28;20198;-55
2021/12/03 03:30:44;;;;;;;8.77;7.53;;;3.10;99.90;;;;;;5034784;28;20222;-50
2021/12/03 03:33:11;;;;;;;7.83;7.03;;;3.10;99.90;;;;;;5035147;28;20265;-55
2021/12/03 03:35:37;;;;;;;8.43;7.03;;;3.10;99.90;;;;;;5034375;28;20200;-52
2021/12/03 03:38:03;;;;;;;7.60;6.70;;;3.10;99.90;;;;;;5034805;28;20183;-52
2021/12/03 03:40:29;;;;;;;8.03;7.23;;;3.10;99.90;;;;;;5034501;28;20172;-55
2021/12/03 03:42:58;;;;;;;9.17;7.07;;;3.10;99.90;;;;;;5034622;28;20290;-55
2021/12/03 03:45:25;;;;;;;8.73;7.43;;;3.10;99.90;;;;;;5034034;28;20239;-55
2021/12/03 03:47:51;;;;;;;8.30;7.33;;;3.10;99.90;;;;;;5153335;23;20232;-49
2021/12/03 03:50:19;;;;;;;8.00;6.93;;;3.10;99.90;;;;;;5051874;28;20669;-48
2021/12/03 03:52:47;;;;;;;7.57;6.17;;;3.10;99.90;;;;;;5026844;28;20238;-50
2021/12/03 03:55:15;;;;;;;8.47;6.67;;;3.10;99.90;;;;;;5049021;28;20184;-52
2021/12/03 03:57:41;;;;;;;9.30;7.33;;;3.10;99.90;;;;;;5068049;28;20194;-48
2021/12/03 04:00:11;;;;;;;9.53;7.87;;;3.10;99.90;;;;;;5074182;28;20181;-45
2021/12/03 04:02:37;;;;;;;8.53;6.80;;;3.10;99.90;;;;;;5074163;28;20187;-48
2021/12/03 04:05:03;;;;;;;8.07;7.13;;;3.10;99.90;;;;;;5073600;28;20189;-48
2021/12/03 04:07:28;;;;;;;8.87;7.30;;;3.10;99.90;;;;;;5073983;28;20247;-46
2021/12/03 04:09:54;;;;;;;7.70;6.43;;;3.10;99.90;;;;;;5056415;28;20197;-50
2021/12/03 04:12:19;;;;;;;7.40;6.43;;;3.10;99.90;;;;;;5073893;28;20198;-45
2021/12/03 04:14:45;;;;;;;8.07;6.83;;;3.10;99.90;;;;;;5073854;28;20170;-45
2021/12/03 04:17:11;;;;;;;8.07;6.90;;;3.10;99.90;;;;;;5073793;28;20243;-48
2021/12/03 04:19:36;;;;;;;9.13;7.17;;;3.00;99.90;;;;;;5073863;28;20171;-46
2021/12/03 04:22:03;;;;;;;8.63;7.23;;;3.00;99.90;;;;;;5073460;28;20657;-46
2021/12/03 04:24:29;;;;;;;10.13;7.97;;;3.10;99.90;;;;;;5073779;28;20175;-50
2021/12/03 04:26:55;;;;;;;10.10;7.33;;;3.00;99.90;;;;;;5073353;28;20252;-45
2021/12/03 04:29:20;;;;;;;9.17;7.30;;;3.00;99.90;;;;;;5073720;28;20167;-46
2021/12/03 04:31:46;;;;;;;9.13;7.60;;;3.00;99.90;;;;;;5073834;28;20265;-50
2021/12/03 04:34:12;;;;;;;8.53;7.27;;;3.00;99.90;;;;;;5073550;28;20171;-49
2021/12/03 04:36:37;;;;;;;8.43;7.53;;;3.10;99.90;;;;;;5072882;28;20186;-51
2021/12/03 04:39:03;;;;;;;10.40;7.83;;;3.10;99.90;;;;;;5073619;28;20169;-45
2021/12/03 04:41:29;;;;;;;10.07;8.53;;;3.10;99.90;;;;;;5073499;28;20633;-48
2021/12/03 04:43:54;;;;;;;8.57;7.27;;;3.10;99.90;;;;;;5073453;28;20206;-50
2021/12/03 04:46:22;;;;;;;9.37;7.27;;;3.00;99.90;;;;;;5055144;28;20190;-47
2021/12/03 04:48:48;;;;;;;7.47;5.33;;;3.10;99.90;;;;;;5073772;28;20178;-46
2021/12/03 04:51:13;;;;;;;7.30;5.57;;;3.10;99.90;;;;;;5073404;28;20182;-47
2021/12/03 04:53:39;;;;;;;6.77;5.73;;;3.00;99.90;;;;;;5055475;28;20235;-49
2021/12/03 04:56:05;;;;;;;6.63;5.90;;;3.00;99.90;;;;;;5072515;28;20545;-52
2021/12/03 04:58:31;;;;;;;7.77;6.37;;;2.90;99.90;;;;;;5072963;28;20683;-50
2021/12/03 05:00:57;;;;;;;7.87;6.57;;;2.90;99.90;;;;;;5073090;28;20179;-48
2021/12/03 05:03:25;;;;;;;7.90;6.50;;;2.90;99.90;;;;;;5073135;28;20198;-49
2021/12/03 05:05:54;;;;;;;8.67;7.30;;;2.80;99.90;;;;;;5072625;28;20217;-49
2021/12/03 05:08:21;;;;;;;10.17;8.20;;;2.80;99.90;;;;;;5073048;28;20166;-46
2021/12/03 05:10:47;;;;;;;10.73;7.93;;;2.90;99.90;;;;;;5072814;28;20166;-52
2021/12/03 05:13:18;;;;;;;9.63;7.87;;;2.90;99.90;;;;;;5072984;28;20182;-50
2021/12/03 05:15:45;;;;;;;9.37;8.27;;;2.90;99.90;;;;;;5072360;28;20186;-51
2021/12/03 05:18:14;;;;;;;9.97;8.50;;;2.80;99.90;;;;;;5072758;28;20204;-47
2021/12/03 05:20:40;;;;;;;11.27;8.50;;;2.80;99.90;;;;;;5072685;28;20650;-50
2021/12/03 05:23:06;;;;;;;11.43;8.80;;;2.80;99.90;;;;;;5072722;28;20259;-48
2021/12/03 05:25:34;;;;;;;10.63;8.60;;;2.80;99.90;;;;;;5072314;28;20178;-48
2021/12/03 05:28:00;;;;;;;9.73;8.37;;;2.80;99.90;;;;;;5072398;28;20665;-50
2021/12/03 05:30:26;;;;;;;12.37;8.13;;;2.80;99.90;;;;;;5072504;28;20182;-49
2021/12/03 05:32:52;;;;;;;10.07;8.40;;;2.80;99.90;;;;;;5072437;28;20189;-46
2021/12/03 05:35:18;;;;;;;10.40;7.77;;;2.80;99.90;;;;;;5072286;28;20261;-46
2021/12/03 05:37:44;;;;;;;11.33;7.90;;;2.80;99.90;;;;;;5072570;28;20324;-52
2021/12/03 05:40:12;;;;;;;9.67;8.03;;;2.80;99.90;;;;;;5072284;28;20189;-46
2021/12/03 05:42:38;;;;;;;10.60;8.60;;;2.80;99.90;;;;;;5072217;28;20255;-46
2021/12/03 05:45:09;;;;;;;11.87;8.43;;;2.80;99.90;;;;;;5072025;28;20249;-50
2021/12/03 05:47:34;;;;;;;10.73;8.93;;;2.80;99.90;;;;;;5071670;28;20198;-46
2021/12/03 05:50:00;;;;;;;10.63;8.53;;;2.80;99.90;;;;;;5071781;28;20174;-48
2021/12/03 05:52:26;;;;;;;10.97;9.40;;;2.80;99.90;;;;;;5072127;28;20233;-44
2021/12/03 05:54:51;;;;;;;10.93;8.77;;;2.80;99.90;;;;;;5054164;28;20182;-48
2021/12/03 05:57:17;;;;;;;12.40;9.50;;;2.70;99.90;;;;;;5071879;28;20194;-50
2021/12/03 05:59:43;;;;;;;9.37;7.60;;;2.70;99.90;;;;;;5072123;28;20557;-50
2021/12/03 06:02:09;;;;;;;12.13;8.93;;;2.70;99.90;;;;;;5071921;28;20259;-47
2021/12/03 06:04:35;;;;;;;12.13;9.10;;;2.70;99.90;;;;;;5066052;28;20657;-52
2021/12/03 06:07:00;;;;;;;11.00;8.90;;;2.70;99.90;;;;;;5071783;28;20199;-48
2021/12/03 06:09:26;;;;;;;13.00;9.77;;;2.70;99.90;;;;;;5071902;28;20174;-46
2021/12/03 06:11:52;;;;;;;10.70;9.07;;;2.70;99.90;;;;;;5071906;28;20201;-51
2021/12/03 06:14:17;;;;;;;12.03;9.47;;;2.70;99.90;;;;;;5072023;28;20182;-49
2021/12/03 06:16:43;;;;;;;10.80;8.97;;;2.70;99.90;;;;;;5071786;28;20323;-51
2021/12/03 06:19:08;;;;;;;11.13;9.27;;;2.70;99.90;;;;;;5071801;28;20181;-52
2021/12/03 06:21:34;;;;;;;12.27;9.97;;;2.60;99.90;;;;;;5072106;28;20170;-50
2021/12/03 06:23:59;;;;;;;12.67;9.90;;;2.60;99.90;;;;;;5071816;28;20206;-46
2021/12/03 06:26:25;;;;;;;10.97;9.67;;;2.60;99.90;;;;;;5071359;28;20285;-48
2021/12/03 06:28:51;;;;;;;12.37;10.23;;;2.50;99.90;;;;;;5071666;28;20174;-47
2021/12/03 06:31:16;;;;;;;10.67;8.43;;;2.40;99.90;;;;;;5071852;28;20193;-46
2021/12/03 06:33:42;;;;;;;11.07;8.77;;;2.40;99.90;;;;;;5071602;28;20257;-46
2021/12/03 06:36:08;;;;;;;12.73;10.17;;;2.40;99.90;;;;;;5071472;28;20170;-46
2021/12/03 06:38:34;;;;;;;11.17;9.03;;;2.40;99.90;;;;;;5071604;28;20209;-48
2021/12/03 06:41:00;;;;;;;11.77;9.43;;;2.40;99.90;;;;;;5071482;28;20261;-53
2021/12/03 06:43:26;;;;;;;10.03;8.07;;;2.40;99.90;;;;;;5071584;28;20250;-49
2021/12/03 06:45:52;;;;;;;13.27;9.80;;;2.40;99.90;;;;;;5071172;28;20174;-49
2021/12/03 06:48:18;;;;;;;11.40;9.03;;;2.40;99.90;;;;;;5071217;28;20232;-50
2021/12/03 06:50:45;;;;;;;11.23;9.10;;;2.40;99.90;;;;;;5071537;28;20218;-45
2021/12/03 06:53:13;;;;;;;9.43;7.83;;;2.40;99.90;;;;;;5071585;28;20253;-47
2021/12/03 06:55:52;;;;;;;10.63;8.90;;;2.40;99.90;;;;;;5070993;28;20221;-51
2021/12/03 06:58:20;;;;;;;12.77;8.77;;;2.40;99.90;;;;;;5071579;28;20174;-47
2021/12/03 07:00:48;;;;;;;9.50;8.00;;;2.40;99.90;;;;;;5074291;28;20182;-48
2021/12/03 07:03:14;;;;;;;10.23;7.97;;;2.40;99.90;;;;;;5075477;28;20289;-48
2021/12/03 07:05:39;;;;;;;9.97;8.20;;;2.50;99.90;;;;;;5075104;28;20224;-48
2021/12/03 07:08:05;;;;;;;10.67;8.60;;;2.50;99.90;;;;;;5074864;28;20559;-46
2021/12/03 07:10:32;;;;;;;10.00;8.47;;;2.50;99.90;;;;;;5075196;28;20174;-46
2021/12/03 07:12:58;;;;;;;9.43;8.30;;;2.50;99.90;;;;;;5074743;28;20178;-50
2021/12/03 07:15:24;;;;;;;10.13;9.07;;;2.60;99.90;;;;;;5074822;28;20201;-48
2021/12/03 07:17:51;;;;;;;9.07;7.83;;;2.60;99.90;;;;;;5074871;28;20198;-43
2021/12/03 07:20:19;;;;;;;8.77;7.70;;;2.60;99.90;;;;;;5074881;28;20257;-51
2021/12/03 07:22:45;;;;;;;8.30;7.13;;;2.60;99.90;;;;;;5074626;28;20198;-48
2021/12/03 07:25:10;;;;;;;8.13;7.17;;;2.60;99.90;;;;;;5074955;28;20517;-50
2021/12/03 07:27:36;;;;;;;7.80;6.30;;;2.60;99.90;;;;;;5054466;28;20625;-47
2021/12/03 07:30:03;;;;;;;6.67;5.83;;;2.60;99.90;;;;;;5057689;28;20262;-47
2021/12/03 07:32:30;;;;;;;5.30;4.80;;;2.60;99.90;;;;;;5054675;28;20780;-44
2021/12/03 07:34:55;;;;;;;6.37;5.40;;;2.60;99.90;;;;;;5066997;28;20178;-46
2021/12/03 07:37:21;;;;;;;5.57;4.80;;;2.60;99.90;;;;;;5074325;28;20357;-50
2021/12/03 07:39:47;;;;;;;5.50;4.70;;;2.60;99.90;;;;;;5062098;28;20186;-48
2021/12/03 07:42:13;;;;;;;5.53;4.60;;;2.60;99.90;;;;;;5090957;28;20732;-46
2021/12/03 07:44:38;;;;;;;4.80;4.20;;;2.60;99.90;;;;;;5073943;28;20219;-44
2021/12/03 07:47:04;;;;;;;5.37;4.50;;;2.60;99.90;;;;;;5073974;28;20222;-47
2021/12/03 07:49:30;;;;;;;6.33;5.10;;;2.60;99.90;;;;;;5074195;28;20571;-49
2021/12/03 07:51:56;;;;;;;5.30;4.63;;;2.60;99.90;;;;;;5074229;28;20729;-50
2021/12/03 07:54:22;;;;;;;5.70;5.10;;;2.60;99.90;;;;;;5074339;28;20537;-48
2021/12/03 07:56:49;;;;;;;4.93;4.40;;;2.60;99.90;;;;;;5073849;28;20618;-51
2021/12/03 07:59:14;;;;;;;6.67;5.77;;;2.60;99.90;;;;;;5056284;28;20171;-51
2021/12/03 08:01:44;;;;;;;6.37;5.50;;;2.60;99.90;;;;;;5073897;28;20254;-49
2021/12/03 08:04:11;;;;;;;7.43;6.10;;;2.70;99.90;;;;;;5073971;28;20664;-46
2021/12/03 08:06:39;;;;;;;7.13;6.20;;;2.70;99.90;;;;;;5073543;28;20193;-48
2021/12/03 08:09:06;;;;;;;8.17;7.23;;;2.70;99.90;;;;;;5074101;28;20179;-48
2021/12/03 08:11:33;;;;;;;7.50;6.67;;;2.70;99.90;;;;;;5072932;28;20227;-51
2021/12/03 08:13:58;;;;;;;8.70;6.17;;;2.80;99.90;;;;;;5088651;28;20185;-46
2021/12/03 08:16:24;;;;;;;7.57;6.10;;;2.80;99.90;;;;;;5093652;28;20562;-44
2021/12/03 08:18:49;;;;;;;7.03;5.90;;;2.80;99.90;;;;;;5093857;28;20181;-51
2021/12/03 08:21:15;;;;;;;6.97;6.07;;;2.90;99.90;;;;;;5075088;28;20584;-49
2021/12/03 08:23:40;;;;;;;7.33;6.53;;;3.00;99.90;;;;;;5073273;28;20665;-50
2021/12/03 08:26:07;;;;;;;6.97;6.10;;;3.00;99.90;;;;;;5073314;28;20198;-48
2021/12/03 08:28:33;;;;;;;8.47;6.50;;;3.10;99.90;;;;;;5073446;28;20174;-50
2021/12/03 08:30:59;;;;;;;7.30;6.20;;;3.10;99.90;;;;;;5073571;28;20688;-54
2021/12/03 08:33:25;;;;;;;6.70;6.00;;;3.10;99.90;;;;;;5073379;28;20182;-48
2021/12/03 08:35:50;;;;;;;8.37;7.37;;;3.20;99.90;;;;;;5072986;28;20171;-47
2021/12/03 08:38:16;;;;;;;10.67;8.77;;;3.20;99.90;;;;;;5073624;28;20186;-49
2021/12/03 08:40:42;;;;;;;7.73;6.70;;;3.20;99.90;;;;;;5073280;28;20210;-48
2021/12/03 08:43:07;;;;;;;9.17;7.90;;;3.20;99.90;;;;;;5073371;28;20202;-49
2021/12/03 08:45:35;;;;;;;9.13;7.67;;;3.30;99.90;;;;;;5072659;28;20171;-46
2021/12/03 08:48:01;;;;;;;8.10;6.77;;;3.30;99.90;;;;;;5066425;28;20202;-49
2021/12/03 08:50:32;;;;;;;9.17;7.47;;;3.30;99.90;;;;;;5066611;28;20207;-45
2021/12/03 08:55:51;;;;;;;10.23;8.73;;;3.40;99.90;;;;;;5048146;28;20597;-44
2021/12/03 08:58:17;;;;;;;9.07;7.30;;;3.40;99.90;;;;;;5072951;28;20182;-47
2021/12/03 09:00:43;;;;;;;8.53;7.13;;;3.40;99.90;;;;;;5072200;28;20252;-46
2021/12/03 09:03:09;;;;;;;8.40;7.40;;;3.40;99.90;;;;;;5072432;28;20214;-46
2021/12/03 09:05:37;;;;;;;8.33;6.90;;;3.40;99.90;;;;;;5072289;28;20174;-50
2021/12/03 09:08:03;;;;;;;7.93;7.07;;;3.50;99.90;;;;;;5072972;28;20198;-46
2021/12/03 09:10:28;;;;;;;8.43;6.80;;;3.50;99.90;;;;;;5072980;28;20230;-46
2021/12/03 09:12:54;;;;;;;7.60;6.73;;;3.50;99.90;;;;;;5054917;28;20223;-48
2021/12/03 09:15:26;;;;;;;8.60;7.27;;;3.60;99.90;;;;;;5072451;28;20261;-49
2021/12/03 09:18:11;;;;;;;8.23;7.00;;;2.30;99.90;;;;;;5072531;28;20673;-49
2021/12/03 09:23:10;;;;;;;6.63;5.93;;;3.70;99.90;;;;;;5072449;28;20247;-48
2021/12/03 09:25:42;;;;;;;6.07;5.40;;;3.70;99.90;;;;;;5071992;28;20182;-50
2021/12/03 09:28:09;;;;;;;5.43;4.90;;;3.70;99.90;;;;;;5067156;28;20250;-55
2021/12/03 09:30:39;;;;;;;6.73;5.87;;;3.70;99.90;;;;;;5055177;28;20709;-48
2021/12/03 09:33:08;;;;;;;5.37;4.87;;;3.70;99.90;;;;;;5052605;28;20185;-49
2021/12/03 09:35:39;;;;;;;6.50;5.40;;;3.70;99.90;;;;;;5069838;28;20541;-48
2021/12/03 09:38:05;;;;;;;6.17;5.43;;;3.60;99.90;;;;;;5071953;28;20207;-45
2021/12/03 09:40:32;;;;;;;6.20;5.60;;;3.60;99.90;;;;;;5072392;28;20641;-50
2021/12/03 09:42:57;;;;;;;6.43;5.60;;;3.60;99.90;;;;;;5072214;28;20213;-46
2021/12/03 09:45:23;;;;;;;5.80;5.20;;;3.50;99.90;;;;;;5071604;28;20250;-52
2021/12/03 09:47:50;;;;;;;5.40;4.90;;;3.50;99.90;;;;;;5068378;23;20358;-45
2021/12/03 09:50:16;;;;;;;6.10;5.50;;;3.50;99.90;;;;;;5030273;28;20168;-43
2021/12/03 09:55:28;;;;;;;5.27;4.77;;;3.60;99.90;;;;;;5031982;28;20234;-47
2021/12/03 10:00:39;;;;;;;6.00;5.30;;;3.70;99.90;;;;;;5032052;28;20187;-47
2021/12/03 10:03:22;;;;;;;6.47;5.70;;;3.60;99.90;;;;;;5031886;28;20206;-45
2021/12/03 10:07:22;;;;;;;7.90;5.77;;;3.60;99.90;;;;;;5013795;28;20638;-50
2021/12/03 10:20:10;;;;;;;6.83;5.80;;;3.90;99.90;;;;;;5031614;28;20226;-46
2021/12/03 10:26:06;;;;;;;6.53;5.80;;;3.90;99.90;;;;;;5031685;28;20190;-49
2021/12/03 10:34:12;;;;;;;7.00;6.30;;;4.00;99.90;;;;;;4951097;29;20598;-46
2021/12/03 10:48:10;;;;;;;6.83;5.60;;;5.30;99.90;;;;;;5028673;28;20238;-48
2021/12/03 11:12:56;;;;;;;4.90;4.50;;;15.90;93.80;;;;;;4950252;28;20262;-48
2021/12/03 12:02:53;;;;;;;5.50;5.00;;;11.30;94.90;;;;;;5014223;28;20266;-48
2021/12/03 12:10:55;;;;;;;5.83;5.23;;;9.60;98.30;;;;;;5014612;28;20219;-51
2021/12/03 12:18:57;;;;;;;6.43;5.83;;;8.80;99.90;;;;;;5034391;28;20214;-48
2021/12/03 13:42:50;;;;;;;5.57;5.07;;;9.60;95.30;;;;;;4995998;28;20208;-52
2021/12/03 14:25:49;;;;;;;4.90;4.50;;;9.40;97.90;;;;;;5011951;28;20203;-51
2021/12/03 14:38:11;;;;;;;5.07;4.50;;;8.80;97.90;;;;;;5011981;28;20230;-50
2021/12/03 14:58:02;;;;;;;5.23;4.73;;;7.60;98.30;;;;;;5011570;28;20657;-50
2021/12/03 15:06:02;;;;;;;5.27;4.77;;;7.20;99.20;;;;;;5010970;28;20562;-46
2021/12/03 15:08:37;;;;;;;5.77;5.00;;;7.20;99.20;;;;;;5011690;28;20196;-47
2021/12/03 15:12:32;;;;;;;5.90;5.30;;;7.10;99.00;;;;;;5011569;28;20276;-49
2021/12/03 15:19:42;;;;;;;7.17;5.93;;;6.60;99.90;;;;;;5011495;28;20231;-47
2021/12/03 15:25:06;;;;;;;6.97;6.10;;;6.20;99.90;;;;;;5015002;28;20188;-50
2021/12/03 15:57:12;;;;;;;6.23;5.63;;;4.60;99.90;;;;;;5014535;28;20196;-48
2021/12/03 16:12:46;;;;;;;5.70;5.10;;;3.90;99.90;;;;;;5014341;28;20562;-50
2021/12/03 16:15:24;;;;;;;6.20;5.10;;;3.80;99.90;;;;;;5014258;28;20180;-48
2021/12/03 16:43:46;;;;;;;5.07;4.40;;;3.20;99.90;;;;;;5012264;28;20199;-52
2021/12/03 16:44:37;;;;;;;5.70;4.77;;;3.10;99.90;;;;;;5013419;28;20223;-50
2021/12/03 16:52:13;;;;;;;6.53;5.00;;;3.00;99.90;;;;;;5013280;28;20275;-47
2021/12/03 16:55:12;;;;;;;6.63;5.13;;;2.90;99.90;;;;;;5013407;28;20173;-48
2021/12/03 16:57:36;;;;;;;6.40;4.60;;;2.90;99.90;;;;;;5009376;28;20191;-51
2021/12/03 17:03:12;;;;;;;5.07;4.53;;;2.80;99.90;;;;;;5052396;23;20237;-52
2021/12/03 17:21:59;;;;;;;6.43;4.80;;;2.40;99.90;;;;;;5002626;28;20801;-51
2021/12/03 17:50:39;;;;;;;5.50;4.43;;;2.20;99.90;;;;;;5017997;28;20183;-48
2021/12/03 17:58:25;;;;;;;14.63;7.93;;;2.10;99.90;;;;;;5032411;28;20464;-46
2021/12/03 18:01:03;;;;;;;27.23;13.00;;;2.10;99.90;;;;;;5031966;28;20453;-43
2021/12/03 18:03:38;;;;;;;8.07;5.97;;;2.10;99.90;;;;;;5032031;28;20245;-44
2021/12/03 18:56:31;;;;;;;8.90;6.40;;;1.70;99.90;;;;;;5034050;28;20253;-44
2021/12/03 18:59:00;;;;;;;6.80;5.57;;;1.60;99.90;;;;;;5035413;28;20411;-45
2021/12/03 19:01:28;;;;;;;7.70;5.57;;;1.60;99.90;;;;;;5035269;28;20406;-43
2021/12/03 19:04:10;;;;;;;6.30;5.67;;;1.60;99.90;;;;;;5035396;28;20489;-47
2021/12/03 19:06:44;;;;;;;7.87;5.73;;;1.60;99.90;;;;;;5035092;28;20455;-43
2021/12/03 19:09:59;;;;;;;7.60;6.20;;;1.60;99.90;;;;;;5035324;28;20490;-45
2021/12/03 19:14:22;;;;;;;11.80;9.50;;;1.50;99.90;;;;;;5035235;28;20874;-45
2021/12/03 19:16:49;;;;;;;12.57;9.77;;;1.50;99.90;;;;;;5035068;28;20171;-46
2021/12/03 19:19:16;;;;;;;12.13;9.00;;;1.50;99.90;;;;;;5033724;28;20853;-45
2021/12/03 19:21:43;;;;;;;14.57;10.70;;;1.40;99.90;;;;;;5034893;28;20824;-43
2021/12/03 19:24:12;;;;;;;10.40;8.83;;;1.40;99.90;;;;;;5035134;28;20931;-45
2021/12/03 19:26:43;;;;;;;9.80;8.13;;;1.40;99.90;;;;;;5034676;28;20407;-43
2021/12/03 19:29:11;;;;;;;12.10;8.83;;;1.30;99.90;;;;;;5035150;28;20485;-44
2021/12/03 19:31:38;;;;;;;9.00;7.93;;;1.30;99.90;;;;;;5034844;28;20402;-46
2021/12/03 19:34:04;;;;;;;9.83;7.60;;;1.20;99.90;;;;;;5035097;28;20491;-43
2021/12/03 19:36:32;;;;;;;10.13;8.10;;;1.20;99.90;;;;;;5034480;28;20849;-47
2021/12/03 19:38:59;;;;;;;8.70;7.53;;;1.20;99.90;;;;;;5017265;28;20187;-46
2021/12/03 19:41:39;;;;;;;9.33;7.23;;;1.20;99.90;;;;;;5034652;28;20456;-44
2021/12/03 19:44:15;;;;;;;9.63;7.17;;;1.10;99.90;;;;;;5034771;28;20450;-43
2021/12/03 19:46:48;;;;;;;8.03;6.63;;;1.10;99.90;;;;;;5034456;28;20402;-46
2021/12/03 19:49:35;;;;;;;8.17;6.73;;;1.10;99.90;;;;;;5034618;28;20407;-44
2021/12/03 19:52:10;;;;;;;7.60;6.40;;;1.10;99.90;;;;;;5034539;28;20428;-47
2021/12/03 19:54:36;;;;;;;8.73;6.77;;;1.00;99.90;;;;;;5034345;28;20402;-48
2021/12/03 19:57:02;;;;;;;8.70;7.07;;;1.00;99.90;;;;;;5034338;28;21102;-43
2021/12/03 19:59:28;;;;;;;10.00;7.07;;;1.00;99.90;;;;;;5034498;28;20168;-43
2021/12/03 20:01:53;;;;;;;9.03;6.63;;;1.00;99.90;;;;;;5034054;28;20242;-47
2021/12/03 20:04:19;;;;;;;8.67;6.43;;;1.00;99.90;;;;;;5033364;28;20215;-47
2021/12/03 20:06:46;;;;;;;7.90;6.40;;;0.90;99.90;;;;;;5032741;28;20176;-43
2021/12/03 20:09:20;;;;;;;8.70;7.20;;;0.90;99.90;;;;;;5032883;28;20164;-48
2021/12/03 20:11:53;;;;;;;9.13;6.83;;;0.90;99.90;;;;;;5034130;28;20426;-47
2021/12/03 20:14:20;;;;;;;8.67;7.23;;;0.90;99.90;;;;;;5034184;28;20501;-44
2021/12/03 20:17:07;;;;;;;8.53;7.13;;;0.90;99.90;;;;;;5034010;28;20403;-44
2021/12/03 20:19:36;;;;;;;10.47;7.90;;;0.80;99.90;;;;;;5037031;28;20532;-43
2021/12/03 20:22:13;;;;;;;10.23;7.57;;;0.80;99.90;;;;;;5033404;28;20430;-44
2021/12/03 20:27:27;;;;;;;8.23;6.77;;;0.70;99.90;;;;;;5032894;28;20406;-44
2021/12/03 20:29:56;;;;;;;9.33;7.03;;;0.70;99.90;;;;;;5031219;28;20441;-45
2021/12/03 20:37:26;;;;;;;8.03;6.60;;;0.60;99.90;;;;;;5034012;28;20429;-45
2021/12/03 20:39:56;;;;;;;8.43;6.97;;;0.60;99.90;;;;;;5031543;28;20826;-47
2021/12/03 20:42:32;;;;;;;8.23;6.90;;;0.60;99.90;;;;;;5033363;28;20440;-40
2021/12/03 20:45:27;;;;;;;8.53;6.37;;;0.60;99.90;;;;;;5036418;28;20497;-43
2021/12/03 21:09:36;;;;;;;7.57;6.10;;;0.50;99.90;;;;;;5030183;28;20456;-43